Giddings Lee County Airport


Codes: KGYB/
Name: Giddings Lee County Airport
City: Giddings
Country: United States
Elevation: 485 ft.

Photos at Giddings Lee County Airport


   Photos courtesy of SpottingLog. You can add your own sightings and photos by signing up for a free trial today.



No photos found.

Weather at Giddings Lee County Airport


Time (UTC)DescriptionTempratureWindCloud coverageVisibilityPressureHumidity
15-Apr-2024 18:00Overcast Clouds23°C16 mph, S100%10000m1013hPa82%
15-Apr-2024 21:00Overcast Clouds25°C18 mph, SE100%10000m1011hPa73%
16-Apr-2024 00:00Overcast Clouds24°C18 mph, S100%10000m1009hPa78%
16-Apr-2024 03:00Overcast Clouds21°C11 mph, SE100%10000m1010hPa88%
16-Apr-2024 06:00Overcast Clouds21°C11 mph, SE100%10000m1011hPa89%
16-Apr-2024 09:00Overcast Clouds20°C13 mph, S100%10000m1009hPa91%
16-Apr-2024 12:00Overcast Clouds21°C11 mph, S100%10000m1010hPa89%
16-Apr-2024 15:00Light Rain23°C9 mph, SW100%10000m1012hPa88%
16-Apr-2024 18:00Light Rain25°C11 mph, S100%10000m1011hPa79%
16-Apr-2024 21:00Light Rain27°C13 mph, S100%10000m1009hPa69%
17-Apr-2024 00:00Overcast Clouds26°C9 mph, S100%10000m1009hPa76%
17-Apr-2024 03:00Overcast Clouds22°C13 mph, S100%10000m1010hPa88%
17-Apr-2024 06:00Overcast Clouds21°C7 mph, S100%10000m1011hPa98%
17-Apr-2024 09:00Overcast Clouds21°C9 mph, S100%10000m1011hPa97%
17-Apr-2024 12:00Overcast Clouds22°C7 mph, SE100%10000m1011hPa94%
17-Apr-2024 15:00Overcast Clouds25°C9 mph, S99%10000m1013hPa81%
17-Apr-2024 18:00Overcast Clouds28°C11 mph, S100%10000m1012hPa64%
17-Apr-2024 21:00Overcast Clouds30°C9 mph, S100%10000m1010hPa57%
18-Apr-2024 00:00Overcast Clouds26°C9 mph, SE100%10000m1011hPa72%
18-Apr-2024 03:00Overcast Clouds23°C11 mph, SE100%10000m1012hPa80%
18-Apr-2024 06:00Overcast Clouds21°C9 mph, S100%10000m1013hPa95%
18-Apr-2024 09:00Light Rain21°C7 mph, S100%10000m1012hPa98%
18-Apr-2024 12:00Overcast Clouds21°C7 mph, S100%10000m1012hPa99%
18-Apr-2024 15:00Overcast Clouds25°C9 mph, S100%10000m1013hPa80%
18-Apr-2024 18:00Overcast Clouds30°C13 mph, S100%10000m1013hPa54%
18-Apr-2024 21:00Broken Clouds32°C13 mph, S82%10000m1011hPa43%
19-Apr-2024 00:00Broken Clouds27°C13 mph, SE56%10000m1009hPa58%
19-Apr-2024 03:00Clear Sky21°C7 mph, SE0%10000m1014hPa74%
19-Apr-2024 06:00Scattered Clouds19°C4 mph, SE42%10000m1015hPa90%
19-Apr-2024 09:00Overcast Clouds20°C11 mph, SE100%10000m1012hPa97%
19-Apr-2024 12:00Overcast Clouds21°C2 mph, E100%10000m1014hPa91%
19-Apr-2024 15:00Light Rain21°C7 mph, NE100%10000m1016hPa89%
19-Apr-2024 18:00Light Rain24°C9 mph, NE100%10000m1015hPa76%
19-Apr-2024 21:00Light Rain24°C9 mph, N95%10000m1014hPa78%
20-Apr-2024 00:00Light Rain24°C7 mph, NE86%10000m1013hPa82%
20-Apr-2024 03:00Light Rain22°C7 mph, NE100%10000m1014hPa91%
20-Apr-2024 06:00Overcast Clouds20°C4 mph, E100%10000m1016hPa95%
20-Apr-2024 09:00Overcast Clouds19°C2 mph, SE100%10000m1015hPa91%
20-Apr-2024 12:00Overcast Clouds18°C4 mph, E100%10000m1015hPa95%
20-Apr-2024 15:00Broken Clouds23°C7 mph, E67%10000m1016hPa79%